sensor_id;sensor_type;location;lat;lon;timestamp;P1;durP1;ratioP1;P2;durP2;ratioP2
15878;SDS011;61999;51.514;14.614;2022-11-15T19:27:33;17.77;;;14.90;;
15878;SDS011;61999;51.514;14.614;2022-11-15T19:30:02;18.87;;;15.43;;
15878;SDS011;61999;51.514;14.614;2022-11-15T19:32:33;19.07;;;15.10;;
15878;SDS011;61999;51.514;14.614;2022-11-15T19:35:00;15.83;;;12.57;;
15878;SDS011;61999;51.514;14.614;2022-11-15T19:37:26;15.87;;;12.47;;
15878;SDS011;61999;51.514;14.614;2022-11-15T19:39:53;19.90;;;14.93;;
15878;SDS011;61999;51.514;14.614;2022-11-15T19:42:22;21.00;;;16.30;;
15878;SDS011;61999;51.514;14.614;2022-11-15T19:49:52;23.97;;;18.13;;
15878;SDS011;61999;51.514;14.614;2022-11-15T19:52:19;28.13;;;23.73;;
15878;SDS011;61999;51.514;14.614;2022-11-15T19:54:46;26.63;;;22.27;;
15878;SDS011;61999;51.514;14.614;2022-11-15T19:57:13;28.17;;;21.53;;
15878;SDS011;61999;51.514;14.614;2022-11-15T19:59:40;26.67;;;21.47;;
15878;SDS011;61999;51.514;14.614;2022-11-15T20:02:07;23.07;;;18.90;;
15878;SDS011;61999;51.514;14.614;2022-11-15T20:04:35;24.57;;;20.50;;
15878;SDS011;61999;51.514;14.614;2022-11-15T20:09:43;26.60;;;21.77;;
15878;SDS011;61999;51.514;14.614;2022-11-15T20:12:10;20.63;;;16.80;;
15878;SDS011;61999;51.514;14.614;2022-11-15T20:14:36;21.83;;;16.23;;
15878;SDS011;61999;51.514;14.614;2022-11-15T20:17:03;18.20;;;14.03;;
15878;SDS011;61999;51.514;14.614;2022-11-15T20:19:30;17.90;;;13.23;;
15878;SDS011;61999;51.514;14.614;2022-11-15T20:21:57;16.87;;;12.77;;
15878;SDS011;61999;51.514;14.614;2022-11-15T20:24:23;17.50;;;12.67;;
15878;SDS011;61999;51.514;14.614;2022-11-15T20:31:53;19.10;;;15.03;;
15878;SDS011;61999;51.514;14.614;2022-11-15T20:34:22;21.57;;;16.13;;
15878;SDS011;61999;51.514;14.614;2022-11-15T20:36:49;18.50;;;14.83;;
15878;SDS011;61999;51.514;14.614;2022-11-15T20:39:15;25.03;;;17.07;;
15878;SDS011;61999;51.514;14.614;2022-11-15T20:41:42;23.87;;;18.50;;
15878;SDS011;61999;51.514;14.614;2022-11-15T20:44:08;22.77;;;16.60;;
15878;SDS011;61999;51.514;14.614;2022-11-15T20:46:36;19.47;;;15.37;;
15878;SDS011;61999;51.514;14.614;2022-11-15T20:54:05;24.40;;;18.33;;
15878;SDS011;61999;51.514;14.614;2022-11-15T20:56:33;24.00;;;17.50;;
15878;SDS011;61999;51.514;14.614;2022-11-15T20:59:00;26.90;;;19.73;;
15878;SDS011;61999;51.514;14.614;2022-11-15T21:01:26;27.10;;;19.37;;
15878;SDS011;61999;51.514;14.614;2022-11-15T21:03:53;26.23;;;19.57;;
15878;SDS011;61999;51.514;14.614;2022-11-15T21:06:22;22.57;;;17.63;;
15878;SDS011;61999;51.514;14.614;2022-11-15T21:08:51;24.93;;;19.10;;
15878;SDS011;61999;51.514;14.614;2022-11-15T21:11:39;26.03;;;19.47;;
15878;SDS011;61999;51.514;14.614;2022-11-15T21:19:28;18.23;;;14.23;;
15878;SDS011;61999;51.514;14.614;2022-11-15T21:21:59;28.43;;;19.23;;
15878;SDS011;61999;51.514;14.614;2022-11-15T21:24:27;24.80;;;17.33;;
15878;SDS011;61999;51.514;14.614;2022-11-15T21:26:54;24.10;;;17.90;;
15878;SDS011;61999;51.514;14.614;2022-11-15T21:29:21;28.87;;;19.03;;
15878;SDS011;61999;51.514;14.614;2022-11-15T21:31:48;23.17;;;17.83;;
15878;SDS011;61999;51.514;14.614;2022-11-15T21:34:16;24.93;;;17.13;;
15878;SDS011;61999;51.514;14.614;2022-11-15T21:40:53;24.40;;;16.97;;
15878;SDS011;61999;51.514;14.614;2022-11-15T21:43:19;24.23;;;16.33;;
15878;SDS011;61999;51.514;14.614;2022-11-15T21:45:53;22.80;;;16.20;;
15878;SDS011;61999;51.514;14.614;2022-11-15T21:48:21;28.73;;;18.43;;
15878;SDS011;61999;51.514;14.614;2022-11-15T21:50:53;31.20;;;20.50;;
15878;SDS011;61999;51.514;14.614;2022-11-15T21:53:21;31.83;;;21.40;;
15878;SDS011;61999;51.514;14.614;2022-11-15T21:55:48;33.07;;;21.27;;
15878;SDS011;61999;51.514;14.614;2022-11-15T21:58:31;27.73;;;19.83;;
15878;SDS011;61999;51.514;14.614;2022-11-15T22:00:59;30.57;;;20.10;;
15878;SDS011;61999;51.514;14.614;2022-11-15T22:03:48;33.23;;;21.47;;
15878;SDS011;61999;51.514;14.614;2022-11-15T22:06:15;36.53;;;23.27;;
15878;SDS011;61999;51.514;14.614;2022-11-15T22:08:43;32.23;;;22.77;;
15878;SDS011;61999;51.514;14.614;2022-11-15T22:11:10;35.70;;;23.30;;
15878;SDS011;61999;51.514;14.614;2022-11-15T22:18:09;31.30;;;19.80;;
15878;SDS011;61999;51.514;14.614;2022-11-15T22:20:37;31.37;;;20.20;;
15878;SDS011;61999;51.514;14.614;2022-11-15T22:23:11;27.50;;;18.77;;
15878;SDS011;61999;51.514;14.614;2022-11-15T22:25:38;35.73;;;22.30;;
15878;SDS011;61999;51.514;14.614;2022-11-15T22:28:05;30.73;;;21.30;;
15878;SDS011;61999;51.514;14.614;2022-11-15T22:30:32;31.63;;;20.30;;
15878;SDS011;61999;51.514;14.614;2022-11-15T22:35:36;28.67;;;19.67;;
15878;SDS011;61999;51.514;14.614;2022-11-15T22:38:04;28.50;;;19.37;;
15878;SDS011;61999;51.514;14.614;2022-11-15T22:40:31;26.03;;;17.20;;
15878;SDS011;61999;51.514;14.614;2022-11-15T22:42:57;27.47;;;18.93;;
15878;SDS011;61999;51.514;14.614;2022-11-15T22:45:24;26.80;;;17.40;;
15878;SDS011;61999;51.514;14.614;2022-11-15T22:47:51;24.40;;;17.13;;
15878;SDS011;61999;51.514;14.614;2022-11-15T22:50:18;24.17;;;16.83;;
15878;SDS011;61999;51.514;14.614;2022-11-15T22:56:50;26.53;;;16.10;;
15878;SDS011;61999;51.514;14.614;2022-11-15T22:59:17;25.80;;;17.80;;
15878;SDS011;61999;51.514;14.614;2022-11-15T23:01:44;21.43;;;15.93;;
15878;SDS011;61999;51.514;14.614;2022-11-15T23:04:11;21.53;;;14.83;;
15878;SDS011;61999;51.514;14.614;2022-11-15T23:06:38;22.93;;;15.20;;
15878;SDS011;61999;51.514;14.614;2022-11-15T23:09:07;22.53;;;15.07;;
15878;SDS011;61999;51.514;14.614;2022-11-15T23:11:35;24.03;;;15.90;;
15878;SDS011;61999;51.514;14.614;2022-11-15T23:15:47;23.70;;;15.23;;
15878;SDS011;61999;51.514;14.614;2022-11-15T23:18:35;25.50;;;16.17;;
15878;SDS011;61999;51.514;14.614;2022-11-15T23:21:06;26.83;;;17.67;;
15878;SDS011;61999;51.514;14.614;2022-11-15T23:23:34;31.67;;;20.97;;
15878;SDS011;61999;51.514;14.614;2022-11-15T23:26:01;34.43;;;22.83;;
15878;SDS011;61999;51.514;14.614;2022-11-15T23:28:28;36.83;;;23.20;;
15878;SDS011;61999;51.514;14.614;2022-11-15T23:31:05;26.90;;;18.50;;
15878;SDS011;61999;51.514;14.614;2022-11-15T23:33:58;28.63;;;18.90;;
15878;SDS011;61999;51.514;14.614;2022-11-15T23:36:26;33.00;;;19.97;;
15878;SDS011;61999;51.514;14.614;2022-11-15T23:38:54;31.10;;;20.53;;
15878;SDS011;61999;51.514;14.614;2022-11-15T23:41:23;31.33;;;21.17;;
15878;SDS011;61999;51.514;14.614;2022-11-15T23:43:50;32.90;;;20.33;;
15878;SDS011;61999;51.514;14.614;2022-11-15T23:46:17;30.77;;;21.47;;
15878;SDS011;61999;51.514;14.614;2022-11-15T23:48:44;28.20;;;18.10;;
15878;SDS011;61999;51.514;14.614;2022-11-15T23:55:27;23.47;;;15.83;;
15878;SDS011;61999;51.514;14.614;2022-11-15T23:57:55;25.67;;;17.00;;
